Kacug, Russia
Current Conditions -  °F | °C
As of 10:00 PM on Saturday 22 Nov 2014 (Local Time) from UIII Reporting Station
Clear Clear  
Wind Chill: 13°   Ceiling: Unl
Heat Index: 19°   Visibility: 6mi
Dew Point: 18°   Wind: 4mph
Humidity: 93%   Direction: 100°E
Pressure: 29.85"   Gusts: NA
Location:  53.97°N, 105.9°E
Report Text: UIII 221400Z 10002MPS CAVOK M07/M08 Q1011 NOSIG RMK QFE716/095512350150
Loading
Personal Weather Stations






























Interactive Weather Map New forecast layout! Learn more

10-Day Weather Forecast

Advertisements
Track Severe Weather on mobile